首页
METAR-TAF:

METAR-TAF

机场 :

道森克里克, 不列颠哥伦比亚, 加拿大

纬度: 55-45N, 经度: 120-11W, 海拔: 655米

当前天气观测

该预报发布于49分钟前的09:00 UTC
风速2节,风向西
温度 -4°C
湿度 93%
气压 1004 hPa
能見度: 14.5公里
天空无云

METAR: CYDQ 150900Z AUTO 28002KT 9SM CLR M04/M05 A2965 RMK SLP078

时间: 02:49 (09:49 UTC)

预报

该预报发布于9小时和11分钟前的00:38 UTC
预报有效从15日的 01点(UTC)到 15日的 05点(UTC)
风速3节,风向多变
能見度: 10公里
散云层高于1500英尺
阴天层高于6000英尺
短暂存在
从 15日的 01点(UTC)到 15日的 05点(UTC)
能見度: 8.0公里
多云层高于1500英尺
阴天层高于4000英尺
小雪
几率 30%
从 15日的 01点(UTC)到 15日的 05点(UTC)
能見度: 8.0公里
少量云层高于600英尺
阴天层高于1500英尺
(小) 冻, 雨, 小雪, 轻雾

TAF: CYDQ 150038Z 1501/1505 VRB03KT P6SM SCT015 OVC060 TEMPO 1501/1505 5SM -SN BKN015 OVC040 PROB30 1501/1505 5SM -FZRA -SN BR FEW006 OVC015 RMK FCST BASED ON AUTO OBS. NXT FCST WILL BE ISSUED AT 151245Z

超过4000个机场的气象观测和天气预报(METAR&TAF报告)。

可查询的气象台以黄色和红色小点在地图上表示。

将鼠标移到小点上方,可查看气象台名称。

然后点击查看天气观测和预报。

如需切换地图:点击带黑十字的绿色按钮放大地图;点击带横线的绿色按钮缩小地图;或者点击绿色箭头查看邻近地区的地图。


METAR-TAF: